sensor_id;sensor_type;location;lat;lon;timestamp;P1;durP1;ratioP1;P2;durP2;ratioP2
46713;SDS011;32445;51.376;10.874;2022-08-19T09:11:49;2.30;;;1.50;;
46713;SDS011;32445;51.376;10.874;2022-08-19T09:14:55;2.63;;;1.75;;
46713;SDS011;32445;51.376;10.874;2022-08-19T09:18:03;4.43;;;2.67;;
46713;SDS011;32445;51.376;10.874;2022-08-19T09:21:04;5.38;;;1.65;;
46713;SDS011;32445;51.376;10.874;2022-08-19T09:24:05;1.60;;;1.50;;
46713;SDS011;32445;51.376;10.874;2022-08-19T09:27:06;2.25;;;2.00;;
46713;SDS011;32445;51.376;10.874;2022-08-19T09:30:07;2.77;;;2.57;;
46713;SDS011;32445;51.376;10.874;2022-08-19T09:33:10;3.03;;;2.15;;
46713;SDS011;32445;51.376;10.874;2022-08-19T09:36:12;3.13;;;2.27;;
46713;SDS011;32445;51.376;10.874;2022-08-19T09:39:15;2.80;;;1.88;;
46713;SDS011;32445;51.376;10.874;2022-08-19T09:42:15;3.17;;;1.50;;
46713;SDS011;32445;51.376;10.874;2022-08-19T09:45:16;4.03;;;1.37;;
46713;SDS011;32445;51.376;10.874;2022-08-19T09:48:20;5.47;;;1.67;;
46713;SDS011;32445;51.376;10.874;2022-08-19T09:51:22;3.78;;;1.98;;
46713;SDS011;32445;51.376;10.874;2022-08-19T09:54:24;5.60;;;2.42;;
46713;SDS011;32445;51.376;10.874;2022-08-19T09:57:24;2.65;;;2.03;;
46713;SDS011;32445;51.376;10.874;2022-08-19T10:00:25;4.20;;;1.80;;
46713;SDS011;32445;51.376;10.874;2022-08-19T10:03:26;3.28;;;2.17;;
46713;SDS011;32445;51.376;10.874;2022-08-19T10:06:29;5.85;;;2.05;;
46713;SDS011;32445;51.376;10.874;2022-08-19T10:09:32;2.45;;;1.90;;
46713;SDS011;32445;51.376;10.874;2022-08-19T10:12:33;8.37;;;1.93;;
46713;SDS011;32445;51.376;10.874;2022-08-19T10:15:34;2.10;;;1.92;;
46713;SDS011;32445;51.376;10.874;2022-08-19T10:18:35;2.22;;;1.60;;
46713;SDS011;32445;51.376;10.874;2022-08-19T10:21:37;2.60;;;1.70;;
46713;SDS011;32445;51.376;10.874;2022-08-19T10:24:38;2.70;;;1.50;;
46713;SDS011;32445;51.376;10.874;2022-08-19T10:27:39;1.85;;;1.70;;
46713;SDS011;32445;51.376;10.874;2022-08-19T10:30:40;4.83;;;1.40;;
46713;SDS011;32445;51.376;10.874;2022-08-19T10:33:41;12.13;;;1.90;;
46713;SDS011;32445;51.376;10.874;2022-08-19T10:36:41;17.27;;;2.07;;
46713;SDS011;32445;51.376;10.874;2022-08-19T10:39:43;28.25;;;2.70;;
46713;SDS011;32445;51.376;10.874;2022-08-19T10:42:47;4.05;;;1.80;;
46713;SDS011;32445;51.376;10.874;2022-08-19T10:45:54;6.53;;;2.10;;
46713;SDS011;32445;51.376;10.874;2022-08-19T10:49:05;1.52;;;1.38;;
46713;SDS011;32445;51.376;10.874;2022-08-19T10:52:05;1.30;;;1.20;;
46713;SDS011;32445;51.376;10.874;2022-08-19T10:55:24;6.30;;;1.30;;
46713;SDS011;32445;51.376;10.874;2022-08-19T10:58:43;2.00;;;1.25;;
46713;SDS011;32445;51.376;10.874;2022-08-19T11:04:45;4.57;;;1.30;;
46713;SDS011;32445;51.376;10.874;2022-08-19T11:07:45;1.67;;;1.27;;
46713;SDS011;32445;51.376;10.874;2022-08-19T11:10:46;3.50;;;0.87;;
46713;SDS011;32445;51.376;10.874;2022-08-19T11:13:46;2.30;;;1.23;;
46713;SDS011;32445;51.376;10.874;2022-08-19T11:16:48;1.33;;;1.23;;
46713;SDS011;32445;51.376;10.874;2022-08-19T11:19:49;4.00;;;1.30;;
46713;SDS011;32445;51.376;10.874;2022-08-19T11:22:50;1.70;;;1.08;;
46713;SDS011;32445;51.376;10.874;2022-08-19T11:25:52;1.20;;;0.93;;
46713;SDS011;32445;51.376;10.874;2022-08-19T11:28:53;1.13;;;1.00;;
46713;SDS011;32445;51.376;10.874;2022-08-19T11:31:56;1.88;;;1.25;;
46713;SDS011;32445;51.376;10.874;2022-08-19T11:34:57;1.10;;;0.70;;
46713;SDS011;32445;51.376;10.874;2022-08-19T11:37:57;1.07;;;0.90;;
46713;SDS011;32445;51.376;10.874;2022-08-19T11:41:02;1.10;;;0.80;;
46713;SDS011;32445;51.376;10.874;2022-08-19T11:44:04;3.55;;;0.73;;
46713;SDS011;32445;51.376;10.874;2022-08-19T11:47:07;1.33;;;1.00;;
46713;SDS011;32445;51.376;10.874;2022-08-19T11:50:08;1.73;;;0.90;;
46713;SDS011;32445;51.376;10.874;2022-08-19T11:53:09;2.70;;;0.90;;
46713;SDS011;32445;51.376;10.874;2022-08-19T11:56:10;0.63;;;0.63;;
46713;SDS011;32445;51.376;10.874;2022-08-19T11:59:11;1.35;;;1.00;;
46713;SDS011;32445;51.376;10.874;2022-08-19T12:02:12;3.00;;;1.45;;
46713;SDS011;32445;51.376;10.874;2022-08-19T12:05:13;7.80;;;1.30;;
46713;SDS011;32445;51.376;10.874;2022-08-19T12:08:14;3.03;;;0.93;;
46713;SDS011;32445;51.376;10.874;2022-08-19T12:11:15;3.88;;;0.80;;
46713;SDS011;32445;51.376;10.874;2022-08-19T12:14:15;1.80;;;1.02;;
46713;SDS011;32445;51.376;10.874;2022-08-19T12:20:16;3.30;;;0.97;;
46713;SDS011;32445;51.376;10.874;2022-08-19T12:23:17;4.07;;;0.80;;
46713;SDS011;32445;51.376;10.874;2022-08-19T12:26:17;1.17;;;1.00;;
46713;SDS011;32445;51.376;10.874;2022-08-19T12:32:18;2.03;;;1.00;;
46713;SDS011;32445;51.376;10.874;2022-08-19T12:35:19;1.13;;;0.65;;
46713;SDS011;32445;51.376;10.874;2022-08-19T12:38:20;0.80;;;0.70;;
46713;SDS011;32445;51.376;10.874;2022-08-19T12:41:24;1.08;;;0.80;;
46713;SDS011;32445;51.376;10.874;2022-08-19T12:44:25;0.93;;;0.77;;
46713;SDS011;32445;51.376;10.874;2022-08-19T12:50:26;5.43;;;0.90;;
46713;SDS011;32445;51.376;10.874;2022-08-19T12:56:28;1.05;;;0.90;;
46713;SDS011;32445;51.376;10.874;2022-08-19T13:02:29;1.02;;;0.88;;
46713;SDS011;32445;51.376;10.874;2022-08-19T13:05:32;1.02;;;0.90;;
46713;SDS011;32445;51.376;10.874;2022-08-19T13:08:36;4.60;;;0.73;;
46713;SDS011;32445;51.376;10.874;2022-08-19T13:11:37;2.80;;;0.95;;
46713;SDS011;32445;51.376;10.874;2022-08-19T13:14:38;3.35;;;1.10;;
46713;SDS011;32445;51.376;10.874;2022-08-19T13:17:40;4.85;;;0.80;;
46713;SDS011;32445;51.376;10.874;2022-08-19T13:20:41;3.85;;;1.52;;
46713;SDS011;32445;51.376;10.874;2022-08-19T13:29:43;1.25;;;0.80;;
46713;SDS011;32445;51.376;10.874;2022-08-19T13:33:02;2.78;;;0.77;;
46713;SDS011;32445;51.376;10.874;2022-08-19T13:36:14;1.17;;;0.80;;
46713;SDS011;32445;51.376;10.874;2022-08-19T13:39:14;1.48;;;0.90;;
46713;SDS011;32445;51.376;10.874;2022-08-19T13:42:15;2.88;;;0.90;;
46713;SDS011;32445;51.376;10.874;2022-08-19T13:45:19;2.00;;;0.90;;
46713;SDS011;32445;51.376;10.874;2022-08-19T13:48:22;1.55;;;1.00;;
46713;SDS011;32445;51.376;10.874;2022-08-19T13:51:23;0.82;;;0.75;;
46713;SDS011;32445;51.376;10.874;2022-08-19T13:54:23;1.30;;;0.80;;
46713;SDS011;32445;51.376;10.874;2022-08-19T13:57:24;1.08;;;0.73;;
46713;SDS011;32445;51.376;10.874;2022-08-19T14:00:26;1.55;;;1.40;;
46713;SDS011;32445;51.376;10.874;2022-08-19T14:03:27;3.90;;;0.80;;
46713;SDS011;32445;51.376;10.874;2022-08-19T14:06:28;1.38;;;1.15;;
46713;SDS011;32445;51.376;10.874;2022-08-19T14:09:28;0.75;;;0.75;;
46713;SDS011;32445;51.376;10.874;2022-08-19T14:12:29;1.33;;;0.80;;
46713;SDS011;32445;51.376;10.874;2022-08-19T14:15:31;2.05;;;0.88;;
46713;SDS011;32445;51.376;10.874;2022-08-19T14:18:32;0.70;;;0.60;;
46713;SDS011;32445;51.376;10.874;2022-08-19T14:21:32;3.28;;;0.85;;
46713;SDS011;32445;51.376;10.874;2022-08-19T14:24:33;1.27;;;0.77;;
46713;SDS011;32445;51.376;10.874;2022-08-19T14:27:34;1.27;;;0.70;;
46713;SDS011;32445;51.376;10.874;2022-08-19T14:30:35;0.80;;;0.80;;
46713;SDS011;32445;51.376;10.874;2022-08-19T14:33:37;3.03;;;0.85;;
46713;SDS011;32445;51.376;10.874;2022-08-19T14:36:38;1.63;;;1.00;;
46713;SDS011;32445;51.376;10.874;2022-08-19T14:39:38;1.20;;;0.60;;
46713;SDS011;32445;51.376;10.874;2022-08-19T14:42:39;0.65;;;0.60;;
46713;SDS011;32445;51.376;10.874;2022-08-19T14:45:39;1.95;;;0.75;;
46713;SDS011;32445;51.376;10.874;2022-08-19T14:48:40;5.20;;;1.08;;
46713;SDS011;32445;51.376;10.874;2022-08-19T14:51:40;2.65;;;0.90;;
46713;SDS011;32445;51.376;10.874;2022-08-19T14:54:41;6.10;;;0.70;;
46713;SDS011;32445;51.376;10.874;2022-08-19T14:57:42;4.03;;;0.90;;
46713;SDS011;32445;51.376;10.874;2022-08-19T15:00:42;2.72;;;0.80;;
46713;SDS011;32445;51.376;10.874;2022-08-19T15:03:43;0.70;;;0.70;;
46713;SDS011;32445;51.376;10.874;2022-08-19T15:06:43;8.20;;;0.95;;
46713;SDS011;32445;51.376;10.874;2022-08-19T15:09:43;1.67;;;0.98;;
46713;SDS011;32445;51.376;10.874;2022-08-19T15:12:44;3.72;;;0.90;;
46713;SDS011;32445;51.376;10.874;2022-08-19T15:15:44;0.70;;;0.70;;
46713;SDS011;32445;51.376;10.874;2022-08-19T15:18:48;3.40;;;1.10;;
46713;SDS011;32445;51.376;10.874;2022-08-19T15:21:50;7.07;;;1.63;;
46713;SDS011;32445;51.376;10.874;2022-08-19T15:24:50;4.43;;;1.63;;
46713;SDS011;32445;51.376;10.874;2022-08-19T15:27:51;5.32;;;1.67;;
46713;SDS011;32445;51.376;10.874;2022-08-19T15:30:52;2.72;;;1.50;;
46713;SDS011;32445;51.376;10.874;2022-08-19T15:33:53;3.72;;;1.50;;
46713;SDS011;32445;51.376;10.874;2022-08-19T15:36:57;4.47;;;1.67;;
46713;SDS011;32445;51.376;10.874;2022-08-19T15:39:58;3.53;;;1.80;;
46713;SDS011;32445;51.376;10.874;2022-08-19T15:42:59;6.20;;;1.40;;
46713;SDS011;32445;51.376;10.874;2022-08-19T15:45:59;3.53;;;1.85;;
46713;SDS011;32445;51.376;10.874;2022-08-19T15:49:00;2.95;;;1.58;;
46713;SDS011;32445;51.376;10.874;2022-08-19T15:52:00;6.20;;;1.98;;
46713;SDS011;32445;51.376;10.874;2022-08-19T15:55:01;4.78;;;1.80;;
46713;SDS011;32445;51.376;10.874;2022-08-19T15:58:06;1.90;;;1.30;;
46713;SDS011;32445;51.376;10.874;2022-08-19T16:01:28;4.72;;;1.50;;
46713;SDS011;32445;51.376;10.874;2022-08-19T16:04:31;3.60;;;1.67;;
46713;SDS011;32445;51.376;10.874;2022-08-19T16:08:07;4.35;;;1.50;;
46713;SDS011;32445;51.376;10.874;2022-08-19T16:11:11;2.47;;;1.58;;
46713;SDS011;32445;51.376;10.874;2022-08-19T16:14:13;4.53;;;1.67;;
46713;SDS011;32445;51.376;10.874;2022-08-19T16:17:15;2.80;;;1.77;;
46713;SDS011;32445;51.376;10.874;2022-08-19T16:20:15;2.28;;;1.70;;
46713;SDS011;32445;51.376;10.874;2022-08-19T16:23:16;3.58;;;1.38;;
46713;SDS011;32445;51.376;10.874;2022-08-19T16:26:17;1.50;;;1.25;;
46713;SDS011;32445;51.376;10.874;2022-08-19T16:29:19;5.28;;;1.80;;
46713;SDS011;32445;51.376;10.874;2022-08-19T16:32:21;4.60;;;1.63;;
46713;SDS011;32445;51.376;10.874;2022-08-19T16:35:22;2.97;;;2.20;;
46713;SDS011;32445;51.376;10.874;2022-08-19T16:38:22;2.35;;;1.75;;
46713;SDS011;32445;51.376;10.874;2022-08-19T16:41:22;3.67;;;2.13;;
46713;SDS011;32445;51.376;10.874;2022-08-19T16:44:23;2.50;;;1.60;;
46713;SDS011;32445;51.376;10.874;2022-08-19T16:47:24;1.55;;;1.45;;
46713;SDS011;32445;51.376;10.874;2022-08-19T16:50:24;1.75;;;1.65;;
46713;SDS011;32445;51.376;10.874;2022-08-19T16:53:25;5.63;;;1.92;;
46713;SDS011;32445;51.376;10.874;2022-08-19T16:56:27;3.15;;;1.65;;
46713;SDS011;32445;51.376;10.874;2022-08-19T16:59:28;7.57;;;2.00;;
46713;SDS011;32445;51.376;10.874;2022-08-19T17:02:28;2.88;;;2.17;;
46713;SDS011;32445;51.376;10.874;2022-08-19T17:05:29;2.35;;;2.00;;
46713;SDS011;32445;51.376;10.874;2022-08-19T17:08:30;2.42;;;1.60;;
46713;SDS011;32445;51.376;10.874;2022-08-19T17:11:31;8.07;;;1.88;;
46713;SDS011;32445;51.376;10.874;2022-08-19T17:14:33;1.73;;;1.63;;
46713;SDS011;32445;51.376;10.874;2022-08-19T17:17:33;1.83;;;1.55;;
46713;SDS011;32445;51.376;10.874;2022-08-19T17:20:34;2.38;;;1.95;;
46713;SDS011;32445;51.376;10.874;2022-08-19T17:23:36;2.13;;;1.67;;
46713;SDS011;32445;51.376;10.874;2022-08-19T17:26:37;2.10;;;1.92;;
46713;SDS011;32445;51.376;10.874;2022-08-19T17:29:38;1.75;;;1.65;;
46713;SDS011;32445;51.376;10.874;2022-08-19T17:32:38;7.25;;;2.33;;
46713;SDS011;32445;51.376;10.874;2022-08-19T17:35:39;2.60;;;2.15;;
46713;SDS011;32445;51.376;10.874;2022-08-19T17:38:42;1.90;;;1.80;;
46713;SDS011;32445;51.376;10.874;2022-08-19T17:41:44;3.90;;;1.98;;
46713;SDS011;32445;51.376;10.874;2022-08-19T17:44:44;4.03;;;1.70;;
46713;SDS011;32445;51.376;10.874;2022-08-19T17:47:45;2.95;;;1.88;;
46713;SDS011;32445;51.376;10.874;2022-08-19T17:50:45;1.98;;;1.70;;
46713;SDS011;32445;51.376;10.874;2022-08-19T17:53:47;3.20;;;2.10;;
46713;SDS011;32445;51.376;10.874;2022-08-19T17:56:49;3.53;;;2.17;;
46713;SDS011;32445;51.376;10.874;2022-08-19T17:59:50;2.00;;;1.88;;
46713;SDS011;32445;51.376;10.874;2022-08-19T18:05:55;2.60;;;2.00;;
46713;SDS011;32445;51.376;10.874;2022-08-19T18:08:56;2.15;;;1.63;;
46713;SDS011;32445;51.376;10.874;2022-08-19T18:11:59;2.53;;;1.40;;
46713;SDS011;32445;51.376;10.874;2022-08-19T18:15:00;2.15;;;1.70;;
46713;SDS011;32445;51.376;10.874;2022-08-19T18:18:02;2.13;;;1.80;;
46713;SDS011;32445;51.376;10.874;2022-08-19T18:24:03;3.07;;;1.77;;
46713;SDS011;32445;51.376;10.874;2022-08-19T18:27:04;3.67;;;2.13;;
46713;SDS011;32445;51.376;10.874;2022-08-19T18:30:06;8.23;;;2.80;;
46713;SDS011;32445;51.376;10.874;2022-08-19T18:33:07;2.45;;;2.20;;
46713;SDS011;32445;51.376;10.874;2022-08-19T18:36:14;4.10;;;2.40;;
46713;SDS011;32445;51.376;10.874;2022-08-19T18:42:33;2.25;;;2.05;;
46713;SDS011;32445;51.376;10.874;2022-08-19T18:45:52;2.67;;;2.25;;
46713;SDS011;32445;51.376;10.874;2022-08-19T18:49:13;2.03;;;1.83;;
46713;SDS011;32445;51.376;10.874;2022-08-19T18:52:19;2.25;;;1.90;;
46713;SDS011;32445;51.376;10.874;2022-08-19T18:55:24;1.75;;;1.63;;
46713;SDS011;32445;51.376;10.874;2022-08-19T18:58:28;1.98;;;1.73;;
46713;SDS011;32445;51.376;10.874;2022-08-19T19:01:35;2.95;;;2.67;;
46713;SDS011;32445;51.376;10.874;2022-08-19T19:04:38;2.97;;;2.63;;
46713;SDS011;32445;51.376;10.874;2022-08-19T19:10:39;2.22;;;2.10;;
46713;SDS011;32445;51.376;10.874;2022-08-19T19:13:41;2.20;;;2.10;;
46713;SDS011;32445;51.376;10.874;2022-08-19T19:16:45;5.20;;;2.03;;
46713;SDS011;32445;51.376;10.874;2022-08-19T19:19:46;5.00;;;2.20;;
46713;SDS011;32445;51.376;10.874;2022-08-19T19:25:46;2.30;;;2.10;;
46713;SDS011;32445;51.376;10.874;2022-08-19T19:28:47;3.13;;;2.83;;
46713;SDS011;32445;51.376;10.874;2022-08-19T19:31:48;3.08;;;2.80;;
46713;SDS011;32445;51.376;10.874;2022-08-19T19:34:52;3.63;;;2.13;;
46713;SDS011;32445;51.376;10.874;2022-08-19T19:37:53;2.97;;;2.40;;
46713;SDS011;32445;51.376;10.874;2022-08-19T19:40:53;2.65;;;2.45;;
46713;SDS011;32445;51.376;10.874;2022-08-19T19:43:54;2.60;;;2.33;;
46713;SDS011;32445;51.376;10.874;2022-08-19T19:46:57;2.85;;;2.58;;
46713;SDS011;32445;51.376;10.874;2022-08-19T19:50:00;5.32;;;2.78;;
46713;SDS011;32445;51.376;10.874;2022-08-19T19:53:01;3.50;;;2.67;;
46713;SDS011;32445;51.376;10.874;2022-08-19T19:56:01;3.88;;;2.53;;
46713;SDS011;32445;51.376;10.874;2022-08-19T19:59:03;5.93;;;2.42;;
46713;SDS011;32445;51.376;10.874;2022-08-19T20:02:03;3.30;;;2.50;;
46713;SDS011;32445;51.376;10.874;2022-08-19T20:08:05;3.63;;;2.40;;
46713;SDS011;32445;51.376;10.874;2022-08-19T20:11:25;2.92;;;2.70;;
46713;SDS011;32445;51.376;10.874;2022-08-19T20:14:34;2.92;;;2.72;;
46713;SDS011;32445;51.376;10.874;2022-08-19T20:17:35;3.23;;;2.93;;
46713;SDS011;32445;51.376;10.874;2022-08-19T20:20:42;4.65;;;2.80;;
46713;SDS011;32445;51.376;10.874;2022-08-19T20:23:44;5.03;;;2.97;;
46713;SDS011;32445;51.376;10.874;2022-08-19T20:26:44;3.63;;;3.33;;
46713;SDS011;32445;51.376;10.874;2022-08-19T20:29:46;7.18;;;3.30;;
46713;SDS011;32445;51.376;10.874;2022-08-19T20:35:48;2.23;;;2.03;;
46713;SDS011;32445;51.376;10.874;2022-08-19T20:38:48;4.57;;;3.07;;
46713;SDS011;32445;51.376;10.874;2022-08-19T20:41:49;2.92;;;2.63;;
46713;SDS011;32445;51.376;10.874;2022-08-19T20:44:49;2.83;;;2.63;;
46713;SDS011;32445;51.376;10.874;2022-08-19T20:47:49;3.03;;;2.83;;
46713;SDS011;32445;51.376;10.874;2022-08-19T20:50:50;3.20;;;2.97;;
46713;SDS011;32445;51.376;10.874;2022-08-19T20:53:50;4.27;;;3.10;;
46713;SDS011;32445;51.376;10.874;2022-08-19T20:56:51;5.37;;;3.13;;
46713;SDS011;32445;51.376;10.874;2022-08-19T20:59:52;3.58;;;2.92;;
46713;SDS011;32445;51.376;10.874;2022-08-19T21:02:52;3.95;;;2.65;;
46713;SDS011;32445;51.376;10.874;2022-08-19T21:05:53;3.17;;;2.97;;
46713;SDS011;32445;51.376;10.874;2022-08-19T21:08:54;3.20;;;3.00;;
46713;SDS011;32445;51.376;10.874;2022-08-19T21:11:54;3.23;;;2.80;;
46713;SDS011;32445;51.376;10.874;2022-08-19T21:14:55;4.53;;;3.37;;
46713;SDS011;32445;51.376;10.874;2022-08-19T21:17:55;3.33;;;3.13;;
46713;SDS011;32445;51.376;10.874;2022-08-19T21:20:56;4.75;;;3.25;;
46713;SDS011;32445;51.376;10.874;2022-08-19T21:23:56;3.77;;;3.47;;
46713;SDS011;32445;51.376;10.874;2022-08-19T21:26:57;4.17;;;2.77;;
46713;SDS011;32445;51.376;10.874;2022-08-19T21:29:57;4.10;;;3.80;;
46713;SDS011;32445;51.376;10.874;2022-08-19T21:32:58;6.80;;;4.27;;
46713;SDS011;32445;51.376;10.874;2022-08-19T21:35:59;4.57;;;4.07;;
46713;SDS011;32445;51.376;10.874;2022-08-19T21:38:59;3.50;;;3.23;;
46713;SDS011;32445;51.376;10.874;2022-08-19T21:42:00;4.27;;;3.77;;
46713;SDS011;32445;51.376;10.874;2022-08-19T21:45:00;4.97;;;3.90;;
46713;SDS011;32445;51.376;10.874;2022-08-19T21:48:01;3.47;;;3.13;;
46713;SDS011;32445;51.376;10.874;2022-08-19T21:51:01;3.23;;;2.97;;
46713;SDS011;32445;51.376;10.874;2022-08-19T21:54:02;3.70;;;3.40;;
46713;SDS011;32445;51.376;10.874;2022-08-19T21:57:02;6.07;;;4.13;;
46713;SDS011;32445;51.376;10.874;2022-08-19T22:00:06;6.00;;;3.65;;
46713;SDS011;32445;51.376;10.874;2022-08-19T22:03:11;3.33;;;3.13;;
46713;SDS011;32445;51.376;10.874;2022-08-19T22:06:12;3.77;;;3.00;;
46713;SDS011;32445;51.376;10.874;2022-08-19T22:09:12;4.13;;;3.33;;
46713;SDS011;32445;51.376;10.874;2022-08-19T22:12:21;3.30;;;3.10;;
46713;SDS011;32445;51.376;10.874;2022-08-19T22:15:23;3.80;;;3.50;;
46713;SDS011;32445;51.376;10.874;2022-08-19T22:18:26;3.50;;;3.22;;
46713;SDS011;32445;51.376;10.874;2022-08-19T22:21:27;3.55;;;3.25;;
46713;SDS011;32445;51.376;10.874;2022-08-19T22:24:27;3.03;;;2.83;;
46713;SDS011;32445;51.376;10.874;2022-08-19T22:27:27;2.80;;;2.60;;
46713;SDS011;32445;51.376;10.874;2022-08-19T22:30:28;3.07;;;2.87;;
46713;SDS011;32445;51.376;10.874;2022-08-19T22:33:30;2.75;;;2.55;;
46713;SDS011;32445;51.376;10.874;2022-08-19T22:36:31;5.35;;;2.85;;
46713;SDS011;32445;51.376;10.874;2022-08-19T22:39:31;3.27;;;2.83;;
46713;SDS011;32445;51.376;10.874;2022-08-19T22:42:31;3.00;;;2.80;;
46713;SDS011;32445;51.376;10.874;2022-08-19T22:45:32;5.33;;;3.30;;
46713;SDS011;32445;51.376;10.874;2022-08-19T22:48:32;3.58;;;3.33;;
46713;SDS011;32445;51.376;10.874;2022-08-19T22:51:33;4.83;;;3.20;;
46713;SDS011;32445;51.376;10.874;2022-08-19T22:54:53;7.60;;;3.65;;
46713;SDS011;32445;51.376;10.874;2022-08-19T22:57:55;3.83;;;3.63;;
46713;SDS011;32445;51.376;10.874;2022-08-19T23:00:56;3.67;;;3.37;;
46713;SDS011;32445;51.376;10.874;2022-08-19T23:03:57;4.65;;;3.60;;
46713;SDS011;32445;51.376;10.874;2022-08-19T23:06:58;3.20;;;3.00;;
46713;SDS011;32445;51.376;10.874;2022-08-19T23:09:58;3.50;;;2.67;;
46713;SDS011;32445;51.376;10.874;2022-08-19T23:12:59;3.10;;;2.90;;
46713;SDS011;32445;51.376;10.874;2022-08-19T23:15:59;2.73;;;2.53;;
46713;SDS011;32445;51.376;10.874;2022-08-19T23:19:00;3.10;;;2.90;;
46713;SDS011;32445;51.376;10.874;2022-08-19T23:22:00;2.72;;;2.53;;
46713;SDS011;32445;51.376;10.874;2022-08-19T23:25:08;4.20;;;2.47;;
46713;SDS011;32445;51.376;10.874;2022-08-19T23:28:12;3.28;;;3.00;;
46713;SDS011;32445;51.376;10.874;2022-08-19T23:31:31;2.95;;;2.65;;
46713;SDS011;32445;51.376;10.874;2022-08-19T23:34:32;2.90;;;2.63;;
46713;SDS011;32445;51.376;10.874;2022-08-19T23:37:32;2.90;;;2.70;;
46713;SDS011;32445;51.376;10.874;2022-08-19T23:40:33;3.80;;;2.70;;
46713;SDS011;32445;51.376;10.874;2022-08-19T23:43:35;3.63;;;3.42;;
46713;SDS011;32445;51.376;10.874;2022-08-19T23:46:37;3.17;;;2.70;;
46713;SDS011;32445;51.376;10.874;2022-08-19T23:49:39;3.65;;;3.28;;
46713;SDS011;32445;51.376;10.874;2022-08-19T23:52:43;3.03;;;2.83;;
46713;SDS011;32445;51.376;10.874;2022-08-19T23:55:46;4.78;;;3.53;;
46713;SDS011;32445;51.376;10.874;2022-08-19T23:58:47;5.05;;;3.10;;
